Time;durP1;ratioP1;P1;durP2;ratioP2;P2;SDS_P1;SDS_P2;PMS_P1;PMS_P2;Temp;Humidity;BMP_temperature;BMP_pressure;BME280_temperature;BME280_humidity;BME280_pressure;Samples;Min_cycle;Max_cycle;Signal;HPM_P1;HPM_P2
2022/04/17 00:01:48;;;;;;;1.50;1.40;;;;;;;6.47;55.92;101306.41;4502218;31;20127;-70
2022/04/17 00:04:16;;;;;;;1.55;1.45;;;;;;;6.43;55.11;101297.63;4502898;31;20091;-70
2022/04/17 00:06:43;;;;;;;3.05;1.98;;;;;;;6.40;53.43;101294.94;4502592;31;20470;-70
2022/04/17 00:09:10;;;;;;;1.92;1.40;;;;;;;6.38;55.76;101298.37;4502504;31;20687;-70
2022/04/17 00:11:38;;;;;;;2.20;1.75;;;;;;;6.40;54.80;101294.06;4502445;31;20127;-70
2022/04/17 00:14:05;;;;;;;3.10;2.05;;;;;;;6.33;55.59;101297.41;4502500;31;20099;-70
2022/04/17 00:16:32;;;;;;;2.62;1.65;;;;;;;6.33;55.22;101289.56;4502601;31;20110;-70
2022/04/17 00:19:00;;;;;;;2.28;1.55;;;;;;;6.28;56.08;101289.44;4502611;31;20100;-70
2022/04/17 00:21:27;;;;;;;1.73;1.50;;;;;;;6.30;55.34;101286.88;4502511;31;20483;-70
2022/04/17 00:23:54;;;;;;;1.55;1.45;;;;;;;6.26;54.77;101288.53;4502470;31;20481;-70
2022/04/17 00:26:21;;;;;;;3.80;1.80;;;;;;;6.26;56.19;101287.66;4502357;31;20134;-70
2022/04/17 00:28:48;;;;;;;5.62;1.85;;;;;;;6.27;54.48;101290.31;4502479;31;20110;-70
2022/04/17 00:31:15;;;;;;;1.42;1.33;;;;;;;6.32;53.63;101285.16;4502375;31;20101;-70
2022/04/17 00:33:43;;;;;;;1.55;1.45;;;;;;;6.23;53.44;101288.47;4502446;31;20606;-70
2022/04/17 00:36:10;;;;;;;1.50;1.40;;;;;;;6.15;53.31;101288.31;4502282;31;20075;-68
2022/04/17 00:38:37;;;;;;;1.62;1.30;;;;;;;6.20;53.16;101285.78;4502574;31;20096;-68
2022/04/17 00:41:04;;;;;;;1.60;1.30;;;;;;;6.15;52.42;101285.72;4502277;31;20191;-68
2022/04/17 00:43:34;;;;;;;5.95;1.65;;;;;;;6.14;52.21;101283.91;4502395;31;20099;-69
2022/04/17 00:46:01;;;;;;;2.08;1.42;;;;;;;6.14;52.36;101283.03;4502321;31;20118;-69
2022/04/17 00:48:29;;;;;;;1.60;1.50;;;;;;;6.11;51.71;101278.66;4502301;31;20166;-69
2022/04/17 00:50:57;;;;;;;1.73;1.33;;;;;;;6.04;52.40;101271.50;4502244;31;20619;-68
2022/04/17 00:53:26;;;;;;;1.48;1.37;;;;;;;6.05;51.50;101273.28;4502530;31;20103;-69
2022/04/17 00:55:54;;;;;;;1.58;1.48;;;;;;;6.02;51.08;101269.72;4502203;31;20143;-68
2022/04/17 00:58:22;;;;;;;1.37;1.27;;;;;;;6.07;49.90;101273.31;4502177;31;20115;-69
2022/04/17 01:00:49;;;;;;;1.50;1.40;;;;;;;6.00;50.69;101267.06;4502183;31;20443;-69
2022/04/17 01:03:17;;;;;;;2.17;1.12;;;;;;;5.99;51.84;101265.31;4502126;31;20107;-69
2022/04/17 01:05:46;;;;;;;2.45;1.12;;;;;;;5.98;51.76;101266.16;4502135;31;20105;-68
2022/04/17 01:08:14;;;;;;;2.65;1.33;;;;;;;5.98;50.92;101264.44;4502412;31;20131;-69
2022/04/17 01:10:42;;;;;;;2.25;1.20;;;;;;;6.00;51.56;101259.22;4502203;31;20147;-68
2022/04/17 01:13:09;;;;;;;1.42;1.33;;;;;;;5.95;50.42;101253.87;4501469;31;20103;-69
2022/04/17 01:15:37;;;;;;;2.35;1.27;;;;;;;5.92;51.14;101255.53;4501974;31;20109;-69
2022/04/17 01:18:05;;;;;;;3.37;1.33;;;;;;;5.87;52.17;101252.81;4502034;31;20107;-68
2022/04/17 01:20:32;;;;;;;1.92;1.45;;;;;;;5.93;50.86;101252.97;4502058;31;20103;-68
2022/04/17 01:28:31;;;;;;;1.23;1.12;;;;;;;5.90;49.21;101257.22;4502079;31;20100;-68
2022/04/17 01:30:58;;;;;;;2.40;1.60;;;;;;;5.86;49.62;101258.00;4501909;31;20095;-68
2022/04/17 01:33:29;;;;;;;1.52;1.42;;;;;;;5.89;49.27;101258.94;4501937;31;20094;-68
2022/04/17 01:35:56;;;;;;;2.67;1.20;;;;;;;5.87;48.12;101259.78;4501912;31;20426;-68
2022/04/17 01:38:24;;;;;;;1.50;1.10;;;;;;;5.81;48.34;101257.91;4502219;31;20492;-68
2022/04/17 01:40:51;;;;;;;1.25;1.23;;;;;;;5.78;47.25;101255.22;4501809;31;20099;-68
2022/04/17 01:43:18;;;;;;;1.52;1.20;;;;;;;5.79;47.35;101257.00;4501870;31;20107;-68
2022/04/17 01:45:45;;;;;;;0.95;0.93;;;;;;;5.75;47.47;101263.00;4501970;31;20144;-68
2022/04/17 01:48:12;;;;;;;2.10;1.33;;;;;;;5.71;46.84;101258.56;4501877;31;20084;-68
2022/04/17 01:50:39;;;;;;;1.45;1.20;;;;;;;5.75;46.48;101250.81;4501955;31;20130;-68
2022/04/17 01:53:08;;;;;;;2.00;1.20;;;;;;;5.73;46.54;101249.91;4501802;31;20099;-69
2022/04/17 01:55:35;;;;;;;1.42;1.10;;;;;;;5.70;47.53;101255.06;4501771;31;20494;-69
2022/04/17 01:58:02;;;;;;;1.80;1.40;;;;;;;5.64;47.31;101252.31;4501946;31;20092;-68
2022/04/17 02:00:29;;;;;;;1.02;0.98;;;;;;;5.71;47.73;101248.97;4501787;31;20462;-68
2022/04/17 02:02:57;;;;;;;1.60;1.50;;;;;;;5.67;48.24;101252.38;4501784;31;20095;-69
2022/04/17 02:05:25;;;;;;;3.53;1.30;;;;;;;5.63;48.70;101255.78;4501749;31;20436;-68
2022/04/17 02:07:52;;;;;;;2.87;1.30;;;;;;;5.58;48.17;101253.91;4501718;31;20096;-68
2022/04/17 02:10:21;;;;;;;1.40;1.30;;;;;;;5.61;47.72;101247.00;4501939;31;20088;-68
2022/04/17 02:12:48;;;;;;;1.73;1.60;;;;;;;5.59;47.07;101248.72;4501684;31;20462;-68
2022/04/17 02:15:16;;;;;;;1.10;1.10;;;;;;;5.61;47.39;101246.13;4501630;31;20420;-68
2022/04/17 02:17:43;;;;;;;2.53;1.00;;;;;;;5.59;46.79;101245.22;4501714;31;20088;-68
2022/04/17 02:20:11;;;;;;;1.58;1.48;;;;;;;5.62;48.36;101251.41;4501535;31;20099;-69
2022/04/17 02:22:40;;;;;;;1.83;1.30;;;;;;;5.55;46.40;101239.06;4501696;31;20146;-68
2022/04/17 02:25:07;;;;;;;1.37;1.27;;;;;;;5.58;47.36;101241.72;4501549;31;20084;-68
2022/04/17 02:27:35;;;;;;;1.30;1.20;;;;;;;5.48;47.47;101237.16;4501829;31;20080;-69
2022/04/17 02:30:04;;;;;;;1.73;1.20;;;;;;;5.49;47.70;101241.53;4501475;31;20130;-69
2022/04/17 02:32:31;;;;;;;1.83;1.50;;;;;;;5.54;48.39;101236.38;4501554;31;20091;-69
2022/04/17 02:34:58;;;;;;;2.55;1.50;;;;;;;5.49;48.58;101237.19;4501491;31;20715;-69
2022/04/17 02:37:26;;;;;;;1.23;1.20;;;;;;;5.41;48.46;101225.69;4501452;31;20520;-69
2022/04/17 02:39:53;;;;;;;1.37;1.27;;;;;;;5.43;47.91;101236.16;4501664;31;20099;-69
2022/04/17 02:42:20;;;;;;;1.20;1.10;;;;;;;5.48;45.21;101229.31;4501441;31;20584;-68
2022/04/17 02:44:47;;;;;;;3.00;1.33;;;;;;;5.48;45.44;101222.34;4501465;31;20083;-68
2022/04/17 02:50:01;;;;;;;1.10;1.05;;;;;;;5.49;45.22;101220.63;4501539;31;20088;-69
2022/04/17 02:52:28;;;;;;;1.37;1.27;;;;;;;5.52;45.41;101215.47;4501503;31;20115;-68
2022/04/17 02:54:55;;;;;;;1.73;1.17;;;;;;;5.50;45.18;101218.03;4501440;31;20403;-69
2022/04/17 02:57:22;;;;;;;1.92;1.20;;;;;;;5.44;45.04;101206.53;4501297;31;20499;-69
2022/04/17 02:59:49;;;;;;;1.17;1.10;;;;;;;5.38;45.77;101219.50;4501543;31;20167;-69
2022/04/17 03:07:48;;;;;;;1.00;1.00;;;;;;;5.26;46.36;101214.84;4501521;31;20079;-68
2022/04/17 03:10:15;;;;;;;1.05;1.00;;;;;;;5.13;46.93;101212.81;4501343;31;20087;-68
2022/04/17 03:12:43;;;;;;;6.60;1.10;;;;;;;5.02;47.36;101226.50;4501218;31;20446;-69
2022/04/17 03:15:10;;;;;;;3.28;1.55;;;;;;;4.91;47.55;101221.84;4501198;31;20083;-68
2022/04/17 03:17:38;;;;;;;1.30;1.20;;;;;;;4.77;47.41;101221.50;4501222;31;20443;-68
2022/04/17 03:20:06;;;;;;;1.35;1.10;;;;;;;4.68;47.73;101213.47;4501095;31;20117;-68
2022/04/17 03:22:33;;;;;;;1.95;1.50;;;;;;;4.57;48.24;101212.31;4500975;31;20125;-69
2022/04/17 03:25:02;;;;;;;3.22;1.20;;;;;;;4.49;48.42;101219.94;4501061;31;20088;-68
2022/04/17 03:27:29;;;;;;;3.03;1.58;;;;;;;4.36;49.50;101220.47;4501012;31;20118;-68
2022/04/17 03:29:57;;;;;;;1.75;1.30;;;;;;;4.28;48.94;101225.47;4501039;31;20429;-68
2022/04/17 03:32:25;;;;;;;1.73;1.52;;;;;;;4.23;48.88;101232.28;4500974;31;20083;-68
2022/04/17 03:34:52;;;;;;;1.67;1.58;;;;;;;4.16;48.70;101238.16;4501275;31;20502;-68
2022/04/17 03:37:19;;;;;;;0.93;0.93;;;;;;;4.08;49.44;101235.34;4505919;31;20155;-68
2022/04/17 03:39:48;;;;;;;1.27;1.20;;;;;;;4.02;48.98;101238.66;4506227;31;20091;-68
2022/04/17 03:42:15;;;;;;;3.50;1.70;;;;;;;4.01;49.22;101239.50;4506281;31;20125;-68
2022/04/17 03:44:42;;;;;;;1.80;1.40;;;;;;;3.92;49.65;101244.47;4506006;31;20092;-68
2022/04/17 03:47:10;;;;;;;3.53;1.20;;;;;;;3.83;50.86;101250.28;4506247;31;20130;-68
2022/04/17 03:49:37;;;;;;;1.60;1.50;;;;;;;3.75;51.14;101251.78;4506027;31;20111;-68
2022/04/17 03:52:05;;;;;;;1.20;1.20;;;;;;;3.71;51.41;101257.75;4506008;31;20591;-68
2022/04/17 03:54:32;;;;;;;1.80;1.20;;;;;;;3.66;51.38;101263.66;4505914;31;20103;-68
2022/04/17 03:56:59;;;;;;;1.10;1.05;;;;;;;3.59;52.00;101259.97;4505962;31;20140;-68
2022/04/17 03:59:26;;;;;;;1.42;1.33;;;;;;;3.58;51.67;101259.09;4505881;31;20167;-68
2022/04/17 04:01:54;;;;;;;2.05;1.33;;;;;;;3.55;51.92;101268.53;4506067;31;20182;-68
2022/04/17 04:04:21;;;;;;;1.52;1.37;;;;;;;3.49;51.85;101264.00;4505698;31;20144;-68
2022/04/17 04:06:49;;;;;;;1.30;1.20;;;;;;;3.54;51.17;101267.66;4505653;31;20462;-68
2022/04/17 04:09:16;;;;;;;1.37;1.20;;;;;;;3.64;49.73;101268.84;4505748;31;20435;-68
2022/04/17 04:11:44;;;;;;;2.83;1.27;;;;;;;3.69;49.86;101262.03;4505592;31;20091;-68
2022/04/17 04:14:11;;;;;;;1.15;1.12;;;;;;;3.71;49.52;101260.37;4505703;31;20076;-68
2022/04/17 04:16:39;;;;;;;1.37;1.27;;;;;;;3.73;50.05;101257.78;4505605;31;20096;-68
2022/04/17 04:19:07;;;;;;;1.85;1.50;;;;;;;3.76;50.19;101265.69;4505419;31;20151;-68
2022/04/17 04:21:47;;;;;;;4.43;3.35;;;;;;;3.72;50.50;101259.50;4503129;31;76547;-68
2022/04/17 04:24:15;;;;;;;53.45;21.00;;;;;;;3.74;50.18;101263.03;4505679;31;20143;-68
2022/04/17 04:26:43;;;;;;;16.00;9.63;;;;;;;3.83;48.90;101268.53;4505297;31;20524;-68
2022/04/17 04:29:10;;;;;;;8.27;3.53;;;;;;;3.90;49.33;101273.94;4505313;31;20091;-68
2022/04/17 04:31:38;;;;;;;2.20;1.73;;;;;;;3.89;49.77;101275.66;4505434;31;20151;-68
2022/04/17 04:34:05;;;;;;;3.10;1.60;;;;;;;3.92;50.24;101280.97;4505341;31;20114;-68
2022/04/17 04:36:32;;;;;;;1.52;1.42;;;;;;;3.96;50.39;101272.41;4505214;31;20459;-68
2022/04/17 04:38:59;;;;;;;2.47;1.10;;;;;;;3.96;51.54;101276.72;4505186;31;20695;-68
2022/04/17 04:41:26;;;;;;;2.60;1.37;;;;;;;3.96;50.71;101272.41;4505193;31;20107;-68
2022/04/17 04:43:53;;;;;;;1.40;1.27;;;;;;;4.02;50.25;101276.88;4505098;31;20083;-68
2022/04/17 04:46:21;;;;;;;2.50;1.70;;;;;;;4.12;49.46;101272.81;4504784;31;20143;-68
2022/04/17 04:51:34;;;;;;;2.25;1.55;;;;;;;4.25;50.10;101270.63;4502495;31;20874;-68
2022/04/17 04:54:01;;;;;;;2.30;1.42;;;;;;;4.29;50.37;101271.59;4502395;31;20114;-68
2022/04/17 04:56:28;;;;;;;1.30;1.20;;;;;;;4.37;49.79;101279.62;4502323;31;20114;-68
2022/04/17 04:58:56;;;;;;;1.73;1.25;;;;;;;4.40;49.13;101271.88;4502222;31;20122;-68
2022/04/17 05:01:23;;;;;;;2.17;1.40;;;;;;;4.46;49.68;101272.06;4502424;31;20179;-68
2022/04/17 05:03:50;;;;;;;2.95;1.60;;;;;;;4.53;49.47;101267.03;4502480;31;20525;-68
2022/04/17 05:06:17;;;;;;;1.45;1.25;;;;;;;4.67;48.68;101274.34;4502243;31;20183;-68
2022/04/17 05:08:44;;;;;;;2.97;2.12;;;;;;;4.69;48.51;101268.31;4502137;31;20543;-68
2022/04/17 05:11:12;;;;;;;1.92;1.62;;;;;;;4.75;48.95;101268.47;4502082;31;20095;-68
2022/04/17 05:13:39;;;;;;;1.98;1.50;;;;;;;4.84;49.30;101266.94;4502247;31;20080;-68
2022/04/17 05:16:06;;;;;;;1.27;1.27;;;;;;;4.89;48.27;101267.94;4502004;31;20088;-68
2022/04/17 05:18:33;;;;;;;2.33;1.37;;;;;;;4.94;47.66;101275.03;4502173;31;20166;-68
2022/04/17 05:21:02;;;;;;;1.77;1.37;;;;;;;5.00;49.09;101266.50;4502026;31;20202;-68
2022/04/17 05:23:29;;;;;;;2.80;1.35;;;;;;;5.07;46.97;101276.25;4502043;31;20466;-68
2022/04/17 05:25:58;;;;;;;1.77;1.30;;;;;;;5.14;47.50;101264.22;4501881;31;20119;-68
2022/04/17 05:28:29;;;;;;;1.45;1.35;;;;;;;5.23;47.31;101267.06;4501994;31;20097;-68
2022/04/17 05:31:01;;;;;;;1.75;1.65;;;;;;;5.31;47.04;101270.72;4502001;31;20114;-68
2022/04/17 05:33:28;;;;;;;1.62;1.48;;;;;;;5.37;46.33;101269.97;4501908;31;20088;-68
2022/04/17 05:35:56;;;;;;;7.68;1.87;;;;;;;5.41;47.65;101266.63;4501989;31;20096;-68
2022/04/17 05:38:23;;;;;;;1.73;1.42;;;;;;;5.45;46.35;101264.09;4501712;31;20100;-68
2022/04/17 05:40:51;;;;;;;1.58;1.25;;;;;;;5.52;45.85;101267.75;4501945;31;20091;-68
2022/04/17 05:43:20;;;;;;;9.77;1.50;;;;;;;5.57;46.97;101268.72;4501948;31;20095;-69
2022/04/17 05:45:50;;;;;;;5.93;1.58;;;;;;;5.64;45.65;101268.00;4501858;31;20104;-68
2022/04/17 05:48:18;;;;;;;1.48;1.23;;;;;;;5.69;45.86;101265.50;4501768;31;20740;-68
2022/04/17 05:50:45;;;;;;;2.35;1.60;;;;;;;5.77;44.99;101276.12;4501716;31;20096;-68
2022/04/17 05:53:12;;;;;;;3.37;1.62;;;;;;;5.86;45.71;101264.13;4501743;31;20138;-68
2022/04/17 05:55:40;;;;;;;1.42;1.30;;;;;;;5.85;46.24;101269.31;4501636;31;20138;-68
2022/04/17 05:58:07;;;;;;;2.28;1.40;;;;;;;5.99;46.34;101274.03;4501271;31;20083;-69
2022/04/17 06:00:36;;;;;;;1.45;1.35;;;;;;;6.08;44.43;101262.88;4501635;31;20103;-68
2022/04/17 06:03:05;;;;;;;1.92;1.70;;;;;;;6.09;44.15;101264.66;4486923;31;20427;-68
2022/04/17 06:05:32;;;;;;;2.45;1.48;;;;;;;6.13;44.33;101266.47;4501880;31;20114;-68
2022/04/17 06:07:59;;;;;;;4.70;1.12;;;;;;;6.18;45.25;101267.47;4501443;31;20099;-69
2022/04/17 06:10:27;;;;;;;4.43;1.58;;;;;;;6.19;44.18;101261.38;4501720;31;20443;-69
2022/04/17 06:12:54;;;;;;;1.40;1.30;;;;;;;6.31;44.04;101267.69;4501717;31;20148;-68
2022/04/17 06:15:21;;;;;;;1.30;1.20;;;;;;;6.35;43.37;101264.28;4501736;31;20083;-69
2022/04/17 06:17:48;;;;;;;1.75;1.55;;;;;;;6.38;45.43;101264.34;4501494;31;20092;-69
2022/04/17 06:20:16;;;;;;;2.60;1.70;;;;;;;6.52;44.36;101267.22;4501619;31;20107;-69
2022/04/17 06:22:43;;;;;;;1.30;1.20;;;;;;;6.53;44.35;101269.84;4501632;31;20393;-69
2022/04/17 06:25:15;;;;;;;1.83;1.62;;;;;;;6.64;43.35;101267.44;4501594;31;20079;-68
2022/04/17 06:27:47;;;;;;;2.58;1.90;;;;;;;6.66;42.35;101269.22;4501709;31;20103;-69
2022/04/17 06:30:20;;;;;;;1.65;1.55;;;;;;;6.69;43.69;101274.53;4501655;31;20117;-69
2022/04/17 06:32:48;;;;;;;2.70;1.65;;;;;;;6.73;44.62;101275.47;4501707;31;20162;-69
2022/04/17 06:35:17;;;;;;;2.00;1.52;;;;;;;6.81;42.55;101275.59;4501866;31;20115;-69
2022/04/17 06:37:59;;;;;;;1.67;1.52;;;;;;;6.82;43.33;101280.87;4501320;31;20184;-69
2022/04/17 06:40:33;;;;;;;3.67;1.55;;;;;;;6.87;44.33;101276.59;4501635;31;20092;-69
2022/04/17 06:43:03;;;;;;;1.87;1.60;;;;;;;6.98;43.02;101282.03;4501648;31;20067;-69
2022/04/17 06:45:33;;;;;;;1.92;1.60;;;;;;;7.03;43.25;101283.00;4501576;31;20088;-69
2022/04/17 06:48:17;;;;;;;1.60;1.42;;;;;;;7.11;43.06;101280.50;4501624;31;20465;-68
2022/04/17 06:50:46;;;;;;;2.03;1.80;;;;;;;7.18;42.09;101290.22;4501449;31;20162;-68
2022/04/17 06:53:14;;;;;;;6.93;2.28;;;;;;;7.22;43.48;101283.28;4501318;31;20114;-69
2022/04/17 06:55:41;;;;;;;2.12;1.67;;;;;;;7.35;44.18;101285.22;4501434;31;20109;-69
2022/04/17 06:58:09;;;;;;;9.73;1.90;;;;;;;7.45;42.67;101283.63;4501335;31;20159;-69
2022/04/17 07:00:37;;;;;;;3.22;1.92;;;;;;;7.47;41.80;101295.03;4501466;31;20426;-68
2022/04/17 07:03:04;;;;;;;1.67;1.48;;;;;;;7.43;42.54;101289.75;4501184;31;20103;-68
2022/04/17 07:05:32;;;;;;;1.92;1.60;;;;;;;7.53;43.00;101293.41;4501269;31;20110;-69
2022/04/17 07:08:01;;;;;;;2.50;1.23;;;;;;;7.66;42.50;101290.06;4501326;31;20095;-69
2022/04/17 07:10:30;;;;;;;2.45;2.25;;;;;;;7.75;41.03;101284.09;4499594;31;20095;-69
2022/04/17 07:12:58;;;;;;;1.60;1.50;;;;;;;7.78;41.54;101283.28;4500967;31;20107;-69
2022/04/17 07:15:25;;;;;;;2.90;1.10;;;;;;;7.79;40.82;101279.78;4500768;31;20087;-69
2022/04/17 07:17:54;;;;;;;1.80;1.70;;;;;;;7.83;40.25;101289.44;4500947;31;20108;-68
2022/04/17 07:20:23;;;;;;;4.43;3.30;;;;;;;7.91;41.95;101287.81;4501042;31;20151;-69
2022/04/17 07:22:51;;;;;;;3.20;1.87;;;;;;;8.02;43.09;101293.19;4501264;31;20509;-69
2022/04/17 07:25:19;;;;;;;8.50;4.05;;;;;;;8.16;40.33;101291.63;4501094;31;20104;-69
2022/04/17 07:27:49;;;;;;;6.97;3.50;;;;;;;8.23;40.51;101287.34;4501067;31;20110;-69
2022/04/17 07:30:21;;;;;;;3.25;2.03;;;;;;;8.26;40.92;101287.38;4501200;31;20116;-69
2022/04/17 07:32:54;;;;;;;1.45;1.35;;;;;;;8.42;41.20;101286.72;4501427;31;20159;-69
2022/04/17 07:35:22;;;;;;;1.27;1.20;;;;;;;8.52;40.29;101285.97;4501157;31;20083;-69
2022/04/17 07:38:01;;;;;;;1.50;1.40;;;;;;;8.56;40.26;101285.13;4501017;31;20111;-69
2022/04/17 07:40:33;;;;;;;1.45;1.35;;;;;;;8.40;40.63;101285.81;4501449;31;20427;-68
2022/04/17 07:43:04;;;;;;;1.12;1.00;;;;;;;8.57;40.46;101281.63;4500939;31;20076;-68
2022/04/17 07:45:32;;;;;;;1.77;1.30;;;;;;;8.68;40.45;101273.87;4501069;31;20152;-69
2022/04/17 07:48:00;;;;;;;1.75;1.27;;;;;;;8.67;40.03;101281.75;4500995;31;20095;-69
2022/04/17 07:50:30;;;;;;;1.58;1.25;;;;;;;8.74;39.69;101279.19;4501074;31;20530;-69
2022/04/17 07:52:58;;;;;;;1.92;1.42;;;;;;;8.83;40.52;101281.00;4500821;31;20118;-69
2022/04/17 07:55:26;;;;;;;2.87;1.37;;;;;;;8.91;40.04;101278.50;4500934;31;20087;-69
2022/04/17 07:57:59;;;;;;;3.37;1.35;;;;;;;8.97;39.11;101279.41;4500582;31;20187;-69
2022/04/17 08:00:28;;;;;;;6.15;1.45;;;;;;;8.95;39.09;101267.13;4500763;31;20095;-69
2022/04/17 08:03:35;;;;;;;1.37;1.27;;;;;;;9.01;39.03;101272.41;4500848;31;20563;-69
2022/04/17 08:06:05;;;;;;;1.62;1.48;;;;;;;9.09;38.52;101260.25;4500631;31;20091;-69
2022/04/17 08:08:34;;;;;;;1.20;1.10;;;;;;;9.13;38.23;101266.41;4500682;31;20088;-69
2022/04/17 08:11:05;;;;;;;1.40;1.30;;;;;;;9.26;37.91;101263.00;4500894;31;20099;-69
2022/04/17 08:13:33;;;;;;;2.70;1.92;;;;;;;9.31;38.18;101258.66;4500705;31;20450;-69
2022/04/17 08:16:04;;;;;;;2.40;1.62;;;;;;;9.52;39.19;101256.16;4500532;31;20113;-69
2022/04/17 08:18:35;;;;;;;1.85;1.45;;;;;;;9.57;38.50;101253.56;4500622;31;20641;-69
2022/04/17 08:21:04;;;;;;;7.22;2.20;;;;;;;9.55;38.71;101253.56;4500445;31;20122;-69
2022/04/17 08:23:32;;;;;;;1.42;1.30;;;;;;;9.67;38.41;101251.88;4502763;31;20383;-69
2022/04/17 08:26:01;;;;;;;1.42;1.33;;;;;;;9.72;39.86;101251.03;4502480;31;20092;-69
2022/04/17 08:28:28;;;;;;;1.60;1.30;;;;;;;9.88;38.04;101243.19;4502659;31;20142;-69
2022/04/17 08:30:56;;;;;;;2.75;1.33;;;;;;;9.99;38.63;101244.13;4502453;31;20171;-69
2022/04/17 08:33:26;;;;;;;2.12;1.92;;;;;;;10.09;38.19;101235.38;4502461;31;20432;-69
2022/04/17 08:35:55;;;;;;;1.15;1.05;;;;;;;10.00;38.49;101236.25;4502534;31;20091;-69
2022/04/17 08:38:22;;;;;;;4.07;1.50;;;;;;;10.17;37.92;101249.47;4502265;31;20554;-69
2022/04/17 08:40:50;;;;;;;1.25;1.20;;;;;;;10.34;37.19;101241.66;4502421;31;20095;-69
2022/04/17 08:43:21;;;;;;;1.75;1.35;;;;;;;10.50;38.77;101243.47;4502472;31;20151;-69
2022/04/17 08:45:54;;;;;;;1.70;1.60;;;;;;;10.52;36.64;101244.31;4502465;31;20084;-69
2022/04/17 08:48:22;;;;;;;2.33;1.60;;;;;;;10.50;37.44;101237.31;4502529;31;20126;-69
2022/04/17 08:50:52;;;;;;;1.62;1.52;;;;;;;10.41;35.70;101237.28;4502449;31;20099;-69
2022/04/17 08:53:20;;;;;;;1.27;1.17;;;;;;;10.61;37.23;101230.28;4502365;31;20525;-69
2022/04/17 08:55:51;;;;;;;2.53;1.37;;;;;;;10.73;37.04;101229.44;4502193;31;20076;-69
2022/04/17 08:58:19;;;;;;;2.05;1.37;;;;;;;10.75;36.56;101227.69;4502246;31;20095;-69
2022/04/17 09:00:46;;;;;;;1.30;1.23;;;;;;;10.71;34.33;101224.16;4502295;31;20125;-69
2022/04/17 09:03:13;;;;;;;1.17;1.15;;;;;;;10.81;36.66;101213.59;4502333;31;20492;-69
2022/04/17 09:05:41;;;;;;;1.85;1.60;;;;;;;10.89;34.69;101211.88;4502223;31;20092;-69
2022/04/17 09:08:19;;;;;;;3.72;2.00;;;;;;;11.19;37.80;101205.69;4502070;31;20114;-66
2022/04/17 09:10:57;;;;;;;2.22;1.55;;;;;;;11.48;36.91;101206.53;4501998;31;20156;-66
2022/04/17 09:13:29;;;;;;;4.47;1.50;;;;;;;11.63;36.71;101192.41;4501845;31;20110;-67
2022/04/17 09:15:58;;;;;;;1.92;1.30;;;;;;;11.64;36.01;101195.91;4502065;31;20155;-67
2022/04/17 09:18:32;;;;;;;1.40;1.30;;;;;;;11.64;35.17;101199.44;4501821;31;20128;-66
2022/04/17 09:21:03;;;;;;;1.33;1.23;;;;;;;11.68;35.86;101195.03;4502192;31;20108;-67
2022/04/17 09:23:34;;;;;;;2.97;1.80;;;;;;;11.83;36.01;101191.44;4502132;31;20080;-67
2022/04/17 09:26:01;;;;;;;1.77;1.60;;;;;;;11.92;33.76;101192.31;4501819;31;20807;-67
2022/04/17 09:28:37;;;;;;;2.62;1.60;;;;;;;11.89;33.86;101183.53;4501877;31;20097;-67
2022/04/17 09:31:12;;;;;;;3.70;2.53;;;;;;;12.05;34.40;101172.03;4501995;31;20235;-67
2022/04/17 09:33:41;;;;;;;3.65;1.73;;;;;;;12.33;34.90;101183.31;4501499;31;20075;-66
2022/04/17 09:36:08;;;;;;;1.80;1.33;;;;;;;12.43;33.33;101174.41;4502002;31;20511;-67
2022/04/17 09:38:41;;;;;;;2.87;1.40;;;;;;;12.61;32.42;101173.38;4501784;31;20179;-67
2022/04/17 09:41:13;;;;;;;3.10;1.48;;;;;;;12.61;34.15;101176.03;4501777;31;20111;-67
2022/04/17 09:43:43;;;;;;;3.20;1.50;;;;;;;12.56;34.37;101164.62;4501878;31;20083;-67
2022/04/17 09:46:13;;;;;;;4.20;2.33;;;;;;;12.88;34.46;101160.84;4501962;31;20424;-67
2022/04/17 09:48:43;;;;;;;2.55;1.67;;;;;;;13.32;34.33;101165.75;4501689;31;20595;-67
2022/04/17 09:51:27;;;;;;;4.03;1.40;;;;;;;13.52;33.35;101160.22;4501804;31;20088;-67
2022/04/17 09:54:05;;;;;;;1.40;1.35;;;;;;;13.39;30.31;101159.50;4501791;31;20539;-67
2022/04/17 09:56:35;;;;;;;1.20;1.20;;;;;;;13.22;31.35;101149.94;4501735;31;20487;-67
2022/04/17 09:59:21;;;;;;;2.53;1.58;;;;;;;13.23;31.41;101149.03;4501674;31;20454;-67
2022/04/17 10:01:51;;;;;;;1.58;1.48;;;;;;;12.89;31.97;101136.13;4501949;31;20095;-67
2022/04/17 10:04:21;;;;;;;2.40;1.35;;;;;;;12.55;32.41;101130.28;4501790;31;20453;-67
2022/04/17 10:06:53;;;;;;;1.45;1.30;;;;;;;12.07;33.92;101127.09;4501559;31;20092;-67
2022/04/17 10:09:21;;;;;;;1.85;1.33;;;;;;;12.39;31.73;101121.59;4501695;31;20212;-67
2022/04/17 10:11:51;;;;;;;1.62;1.30;;;;;;;13.19;33.13;101127.03;4501601;31;20163;-67
2022/04/17 10:14:19;;;;;;;1.17;1.17;;;;;;;13.81;31.60;101129.84;4501583;31;20109;-67
2022/04/17 10:16:48;;;;;;;1.98;1.50;;;;;;;14.41;30.44;101121.87;4501560;31;20142;-67
2022/04/17 10:19:19;;;;;;;2.15;1.30;;;;;;;14.72;29.98;101117.00;4501377;31;20104;-67
2022/04/17 10:21:47;;;;;;;1.85;1.58;;;;;;;14.96;29.96;101118.34;4501728;31;20092;-67
2022/04/17 10:24:17;;;;;;;1.40;1.20;;;;;;;14.37;29.48;101112.22;4501593;31;20118;-67
2022/04/17 10:26:49;;;;;;;1.05;1.05;;;;;;;13.54;31.61;101104.59;4491217;31;20164;-67
2022/04/17 10:29:25;;;;;;;2.45;1.30;;;;;;;13.56;31.24;101102.78;4485703;31;20096;-67
2022/04/17 10:32:29;;;;;;;2.97;1.10;;;;;;;13.14;30.48;101099.72;4485756;31;20087;-67
2022/04/17 10:35:34;;;;;;;2.28;1.70;;;;;;;13.19;31.47;101097.91;4485857;31;20423;-67
2022/04/17 10:38:16;;;;;;;1.42;1.33;;;;;;;12.97;33.25;101085.78;4485595;31;20458;-67
2022/04/17 10:40:52;;;;;;;1.27;1.27;;;;;;;13.06;32.16;101102.47;4485674;31;20142;-67
2022/04/17 10:43:20;;;;;;;3.60;1.55;;;;;;;13.16;30.76;101090.87;4485708;31;20104;-67
2022/04/17 10:46:08;;;;;;;1.10;1.10;;;;;;;13.76;30.87;101087.53;4484325;31;20184;-67
2022/04/17 10:48:48;;;;;;;1.08;0.80;;;;;;;13.83;29.49;101078.59;4485516;31;20118;-67
2022/04/17 10:51:16;;;;;;;1.60;1.50;;;;;;;13.42;30.27;101067.69;4485528;31;20092;-67
2022/04/17 10:54:05;;;;;;;1.37;1.27;;;;;;;14.43;29.86;101067.06;4483521;31;20432;-68
2022/04/17 10:56:58;;;;;;;1.08;1.08;;;;;;;15.80;28.91;101053.84;4485591;31;20152;-68
2022/04/17 10:59:33;;;;;;;1.40;1.30;;;;;;;16.30;27.63;101063.25;4485365;31;20153;-68
2022/04/17 11:02:10;;;;;;;1.50;1.10;;;;;;;16.08;27.76;101052.28;4485586;31;20188;-68
2022/04/17 11:04:54;;;;;;;1.00;1.00;;;;;;;16.18;25.24;101053.81;4485667;31;20129;-66
2022/04/17 11:07:23;;;;;;;2.47;1.25;;;;;;;15.81;26.50;101050.25;4485477;31;20915;-66
2022/04/17 11:10:05;;;;;;;1.67;1.00;;;;;;;15.38;28.00;101059.12;4485396;31;20096;-66
2022/04/17 11:12:45;;;;;;;1.08;1.02;;;;;;;14.37;28.04;101055.69;4485339;31;20153;-66
2022/04/17 11:15:12;;;;;;;1.08;0.95;;;;;;;14.20;28.31;101048.00;4485239;31;20164;-66
2022/04/17 11:17:42;;;;;;;2.87;1.42;;;;;;;15.84;27.49;101042.22;4485508;31;20125;-66
2022/04/17 11:20:10;;;;;;;1.50;1.40;;;;;;;15.80;27.28;101051.19;4485406;31;20119;-66
2022/04/17 11:22:38;;;;;;;2.05;0.85;;;;;;;14.61;27.89;101050.00;4485094;31;20187;-66
2022/04/17 11:25:11;;;;;;;1.25;1.10;;;;;;;14.19;28.12;101039.19;4485119;31;20147;-66
2022/04/17 11:27:46;;;;;;;0.90;0.90;;;;;;;16.52;28.03;101030.81;4499795;31;20095;-66
2022/04/17 11:30:35;;;;;;;2.00;1.35;;;;;;;19.04;23.62;101022.06;4501189;31;20160;-66
2022/04/17 11:33:04;;;;;;;4.03;1.33;;;;;;;18.44;23.58;101026.81;4500765;31;20518;-66
2022/04/17 11:35:31;;;;;;;2.30;1.37;;;;;;;16.62;24.80;101038.50;4501018;31;20130;-66
2022/04/17 11:38:02;;;;;;;4.65;1.40;;;;;;;15.43;27.19;101022.72;4500777;31;20087;-66
2022/04/17 11:40:32;;;;;;;3.28;1.20;;;;;;;16.69;26.18;101024.13;4501018;31;20446;-66
2022/04/17 11:43:18;;;;;;;0.85;0.85;;;;;;;19.11;23.25;101023.59;4500690;31;20465;-66
2022/04/17 11:45:47;;;;;;;0.88;0.88;;;;;;;20.25;20.75;101006.66;4500965;31;20099;-66
2022/04/17 11:48:16;;;;;;;0.95;0.95;;;;;;;20.25;21.59;101009.34;4500713;31;20130;-66
2022/04/17 11:50:44;;;;;;;1.00;0.93;;;;;;;20.15;20.62;101013.31;4500623;31;20507;-67
2022/04/17 11:53:16;;;;;;;1.40;1.30;;;;;;;21.39;20.19;101022.16;4500456;31;20119;-67
2022/04/17 11:55:45;;;;;;;3.92;2.72;;;;;;;22.49;19.43;101001.62;4500617;31;20492;-66
2022/04/17 11:58:21;;;;;;;0.90;0.90;;;;;;;23.73;18.90;101005.69;4502410;31;20459;-66
2022/04/17 12:00:59;;;;;;;3.12;1.08;;;;;;;22.85;19.22;100991.59;4502749;31;20087;-67